Time;durP1;ratioP1;P1;durP2;ratioP2;P2;SDS_P1;SDS_P2;PMS_P1;PMS_P2;Temp;Humidity;BMP_temperature;BMP_pressure;BME280_temperature;BME280_humidity;BME280_pressure;Samples;Min_cycle;Max_cycle;Signal;HPM_P1;HPM_P2
2022/02/20 00:00:42;;;;;;;4.85;1.30;;;5.50;87.00;;;;;;4997082;28;20049;-73
2022/02/20 00:03:08;;;;;;;3.50;0.77;;;5.50;87.80;;;;;;4994362;28;20104;-74
2022/02/20 00:05:36;;;;;;;6.15;1.35;;;5.50;86.70;;;;;;5000670;28;20860;-73
2022/02/20 00:08:02;;;;;;;4.03;1.02;;;5.40;87.10;;;;;;4998047;28;20037;-73
2022/02/20 00:10:28;;;;;;;4.32;1.42;;;5.30;87.50;;;;;;4996118;28;20132;-74
2022/02/20 00:12:54;;;;;;;4.53;0.80;;;5.30;88.40;;;;;;4993818;28;20105;-74
2022/02/20 00:15:20;;;;;;;2.20;0.90;;;5.30;88.40;;;;;;4997065;28;20060;-74
2022/02/20 00:17:50;;;;;;;2.85;0.95;;;5.30;88.60;;;;;;4997832;28;20752;-74
2022/02/20 00:20:18;;;;;;;2.90;0.98;;;5.20;88.60;;;;;;4997827;28;20022;-73
2022/02/20 00:22:44;;;;;;;4.53;1.25;;;5.30;89.30;;;;;;4992548;28;20819;-73
2022/02/20 00:25:10;;;;;;;6.13;0.90;;;5.30;89.00;;;;;;4997652;28;20025;-74
2022/02/20 00:27:35;;;;;;;3.80;1.00;;;5.30;89.20;;;;;;4999805;28;20096;-73
2022/02/20 00:30:02;;;;;;;3.90;0.93;;;5.30;89.20;;;;;;5002311;28;20036;-74
2022/02/20 00:32:29;;;;;;;1.70;0.77;;;5.20;90.10;;;;;;4999147;28;20100;-72
2022/02/20 00:34:54;;;;;;;4.43;0.70;;;5.20;90.30;;;;;;4999068;28;20038;-72
2022/02/20 00:37:20;;;;;;;4.03;1.00;;;5.30;90.60;;;;;;4997186;28;20036;-72
2022/02/20 00:39:46;;;;;;;6.65;1.42;;;5.30;90.30;;;;;;4994731;28;20128;-73
2022/02/20 00:42:13;;;;;;;5.85;0.90;;;5.30;90.60;;;;;;4999519;28;20080;-72
2022/02/20 00:44:39;;;;;;;6.47;1.10;;;5.40;90.40;;;;;;4996068;28;20037;-72
2022/02/20 00:47:05;;;;;;;1.73;0.68;;;5.30;90.50;;;;;;4993302;28;20121;-72
2022/02/20 00:49:31;;;;;;;3.72;0.70;;;5.20;90.80;;;;;;5004729;28;20046;-72
2022/02/20 00:51:57;;;;;;;5.10;0.80;;;5.20;91.20;;;;;;5012978;28;20168;-72
2022/02/20 00:54:22;;;;;;;3.83;0.98;;;5.20;91.40;;;;;;5002046;28;20045;-74
2022/02/20 00:56:48;;;;;;;2.20;0.80;;;5.10;91.60;;;;;;4995303;28;20078;-73
2022/02/20 00:59:14;;;;;;;5.25;1.08;;;5.10;91.80;;;;;;5006733;28;20621;-73
2022/02/20 01:01:42;;;;;;;1.88;0.88;;;4.80;92.00;;;;;;5001788;28;20072;-73
2022/02/20 01:04:09;;;;;;;5.00;0.90;;;4.80;92.60;;;;;;5003515;28;20021;-73
2022/02/20 01:06:35;;;;;;;8.40;1.33;;;4.80;92.70;;;;;;4996679;28;20034;-73
2022/02/20 01:09:02;;;;;;;2.58;0.95;;;4.70;92.90;;;;;;4999902;28;20038;-72
2022/02/20 01:11:30;;;;;;;5.07;1.55;;;4.70;93.20;;;;;;5003510;28;20040;-73
2022/02/20 01:13:55;;;;;;;6.93;1.20;;;4.70;93.20;;;;;;5001711;28;20034;-72
2022/02/20 01:16:21;;;;;;;5.80;1.20;;;4.60;93.50;;;;;;5002465;28;20093;-73
2022/02/20 01:18:47;;;;;;;10.23;1.42;;;4.70;93.60;;;;;;4994765;28;20400;-72
2022/02/20 01:21:12;;;;;;;1.67;1.13;;;4.60;93.40;;;;;;5003285;28;20030;-72
2022/02/20 01:23:38;;;;;;;5.97;1.27;;;4.60;93.60;;;;;;4999869;28;20033;-73
2022/02/20 01:26:04;;;;;;;2.38;1.23;;;4.60;93.70;;;;;;5000242;28;20041;-73
2022/02/20 01:28:30;;;;;;;5.70;1.10;;;4.60;93.80;;;;;;5000768;28;20052;-73
2022/02/20 01:30:56;;;;;;;6.97;1.75;;;4.60;93.80;;;;;;4999564;28;20508;-72
2022/02/20 01:33:22;;;;;;;6.43;1.30;;;4.50;93.90;;;;;;5002276;28;20063;-72
2022/02/20 01:35:48;;;;;;;3.25;1.50;;;4.30;94.20;;;;;;5003035;28;20037;-72
2022/02/20 01:38:17;;;;;;;5.35;1.50;;;4.30;94.50;;;;;;5004658;28;20064;-72
2022/02/20 01:40:46;;;;;;;3.83;1.45;;;4.20;94.60;;;;;;5009359;28;20482;-74
2022/02/20 01:43:12;;;;;;;4.07;1.75;;;4.30;94.70;;;;;;5004681;28;20453;-73
2022/02/20 01:45:40;;;;;;;8.23;2.22;;;4.20;94.60;;;;;;4998451;28;20037;-72
2022/02/20 01:48:07;;;;;;;7.30;1.60;;;4.20;94.80;;;;;;5002546;28;20067;-73
2022/02/20 01:50:34;;;;;;;4.03;1.80;;;4.20;94.80;;;;;;4994331;28;20038;-73
2022/02/20 01:53:00;;;;;;;5.20;1.75;;;4.20;94.80;;;;;;5004860;28;20041;-73
2022/02/20 01:55:26;;;;;;;3.60;1.65;;;4.20;94.90;;;;;;4992420;28;20042;-73
2022/02/20 01:58:18;;;;;;;3.45;1.52;;;4.20;94.90;;;;;;4998194;28;20067;-73
2022/02/20 02:01:19;;;;;;;3.58;1.83;;;4.30;94.80;;;;;;4953099;28;20034;-73
2022/02/20 02:03:55;;;;;;;6.32;1.33;;;4.30;94.70;;;;;;4987763;28;20561;-73
2022/02/20 02:06:38;;;;;;;5.90;1.70;;;4.20;94.70;;;;;;4998296;28;20045;-73
2022/02/20 02:09:05;;;;;;;3.65;1.90;;;4.20;94.90;;;;;;5001958;28;20057;-74
2022/02/20 02:12:09;;;;;;;4.88;1.80;;;4.20;94.90;;;;;;4942892;29;20096;-73
2022/02/20 02:15:02;;;;;;;3.13;1.40;;;4.20;95.10;;;;;;4941965;28;20031;-73
2022/02/20 02:17:51;;;;;;;5.13;1.52;;;4.20;95.10;;;;;;4969074;28;20144;-74
2022/02/20 02:20:36;;;;;;;6.13;1.67;;;4.20;94.90;;;;;;4998862;28;20033;-73
2022/02/20 02:23:08;;;;;;;3.78;1.13;;;4.20;95.10;;;;;;4994469;28;20033;-72
2022/02/20 02:26:05;;;;;;;3.35;1.30;;;4.30;95.10;;;;;;4969466;28;20047;-70
2022/02/20 02:28:45;;;;;;;7.05;1.90;;;4.20;95.00;;;;;;5000839;28;20113;-71
2022/02/20 02:31:14;;;;;;;8.65;1.98;;;4.20;95.00;;;;;;5001462;28;20128;-71
2022/02/20 02:33:42;;;;;;;3.83;1.50;;;4.20;95.20;;;;;;4992007;28;20069;-71
2022/02/20 02:36:10;;;;;;;6.20;1.40;;;4.20;95.30;;;;;;4997120;28;20036;-71
2022/02/20 02:38:36;;;;;;;6.40;1.90;;;4.20;95.20;;;;;;5000862;28;20046;-71
2022/02/20 02:41:05;;;;;;;3.88;1.75;;;4.10;95.20;;;;;;4998657;28;20034;-71
2022/02/20 02:43:32;;;;;;;2.78;1.40;;;4.10;95.40;;;;;;5002894;28;20060;-72
2022/02/20 02:45:59;;;;;;;3.42;1.38;;;4.10;95.40;;;;;;5001407;28;20042;-72
2022/02/20 02:48:25;;;;;;;2.47;1.50;;;4.10;95.50;;;;;;5001842;28;20030;-70
2022/02/20 02:50:51;;;;;;;3.97;1.42;;;4.10;95.70;;;;;;4999754;28;20057;-72
2022/02/20 02:53:18;;;;;;;3.60;1.48;;;4.10;95.60;;;;;;5001184;28;20033;-71
2022/02/20 02:55:45;;;;;;;3.20;1.75;;;4.20;95.70;;;;;;4993155;28;20053;-71
2022/02/20 02:58:15;;;;;;;2.35;1.67;;;4.20;95.50;;;;;;5002782;28;20025;-71
2022/02/20 03:00:41;;;;;;;2.42;1.60;;;4.10;95.70;;;;;;4999857;28;20033;-71
2022/02/20 03:03:07;;;;;;;6.45;1.83;;;4.20;95.80;;;;;;4996678;28;20037;-71
2022/02/20 03:05:33;;;;;;;3.35;1.35;;;4.30;95.80;;;;;;4996502;28;20150;-72
2022/02/20 03:07:58;;;;;;;4.05;1.65;;;4.30;95.80;;;;;;4992652;28;20038;-73
2022/02/20 03:10:25;;;;;;;5.15;1.58;;;4.20;95.80;;;;;;5007173;28;20034;-72
2022/02/20 03:12:51;;;;;;;4.50;1.58;;;4.20;95.80;;;;;;5002233;28;20111;-71
2022/02/20 03:15:18;;;;;;;4.35;1.20;;;4.20;95.90;;;;;;5002910;28;20569;-71
2022/02/20 03:17:44;;;;;;;2.72;1.25;;;4.20;95.90;;;;;;4992624;28;20131;-71
2022/02/20 03:20:11;;;;;;;3.17;1.13;;;4.20;95.90;;;;;;4996868;28;20036;-71
2022/02/20 03:22:41;;;;;;;3.13;1.48;;;4.20;96.10;;;;;;5002212;28;20466;-71
2022/02/20 03:25:07;;;;;;;1.85;1.13;;;4.20;96.20;;;;;;5001075;28;20041;-72
2022/02/20 03:27:34;;;;;;;3.53;1.20;;;4.30;96.00;;;;;;4998404;28;20033;-71
2022/02/20 03:30:06;;;;;;;2.47;1.45;;;4.30;96.00;;;;;;5000866;28;20026;-72
2022/02/20 03:32:35;;;;;;;2.40;1.00;;;4.40;96.10;;;;;;5000271;28;20029;-73
2022/02/20 03:35:01;;;;;;;2.25;0.82;;;4.50;95.80;;;;;;5003507;28;20041;-73
2022/02/20 03:37:28;;;;;;;3.20;1.23;;;4.50;95.40;;;;;;4999059;28;20037;-72
2022/02/20 03:39:53;;;;;;;2.67;0.88;;;4.60;95.60;;;;;;4993151;28;20367;-73
2022/02/20 03:42:19;;;;;;;2.75;1.08;;;4.50;95.50;;;;;;5001180;28;20037;-73
2022/02/20 03:45:06;;;;;;;1.30;0.80;;;4.50;95.50;;;;;;5000017;28;20018;-71
2022/02/20 03:47:35;;;;;;;2.85;0.93;;;4.60;95.70;;;;;;4996910;28;20033;-74
2022/02/20 03:50:03;;;;;;;2.80;0.73;;;4.50;95.50;;;;;;4998939;28;20033;-72
2022/02/20 03:52:30;;;;;;;2.45;0.73;;;4.50;95.80;;;;;;5001605;28;20049;-73
2022/02/20 03:54:56;;;;;;;2.30;1.00;;;4.60;95.50;;;;;;4996967;28;20034;-75
2022/02/20 03:57:24;;;;;;;1.45;0.70;;;4.60;95.50;;;;;;5001898;28;20037;-71
2022/02/20 04:00:12;;;;;;;2.05;0.90;;;4.70;95.60;;;;;;4995492;28;20037;-73
2022/02/20 04:02:51;;;;;;;1.50;0.68;;;4.60;95.40;;;;;;4993927;28;20822;-72
2022/02/20 04:05:19;;;;;;;0.57;0.57;;;4.60;95.60;;;;;;4999868;28;20564;-72
2022/02/20 04:07:45;;;;;;;1.25;0.93;;;4.60;95.60;;;;;;4994286;28;20062;-72
2022/02/20 04:10:13;;;;;;;1.05;0.93;;;4.70;95.60;;;;;;5000081;28;20033;-72
2022/02/20 04:12:39;;;;;;;1.10;0.55;;;4.80;95.60;;;;;;4996381;28;20034;-72
2022/02/20 04:15:12;;;;;;;0.73;0.70;;;4.80;95.50;;;;;;4994946;28;20048;-72
2022/02/20 04:17:44;;;;;;;2.63;0.80;;;4.90;95.20;;;;;;4995971;28;20034;-72
2022/02/20 04:20:12;;;;;;;1.30;0.68;;;5.00;95.20;;;;;;5001732;28;20492;-72
2022/02/20 04:22:39;;;;;;;0.60;0.60;;;5.00;95.20;;;;;;4990669;28;20038;-73
2022/02/20 04:25:06;;;;;;;1.13;0.57;;;5.00;95.60;;;;;;4999752;28;20121;-73
2022/02/20 04:27:32;;;;;;;0.93;0.70;;;5.00;95.10;;;;;;5013519;28;20037;-73
2022/02/20 04:29:58;;;;;;;0.80;0.60;;;5.00;95.20;;;;;;5000294;28;20022;-73
2022/02/20 04:32:24;;;;;;;2.55;0.85;;;5.00;95.20;;;;;;5004266;28;20061;-73
2022/02/20 04:34:57;;;;;;;2.72;0.90;;;5.00;95.30;;;;;;5002506;28;20035;-73
2022/02/20 04:37:23;;;;;;;0.80;0.80;;;5.00;95.20;;;;;;5003551;28;20710;-73
2022/02/20 04:39:49;;;;;;;0.85;0.70;;;5.00;95.30;;;;;;5002155;28;20853;-73
2022/02/20 04:42:15;;;;;;;1.85;0.80;;;5.00;95.30;;;;;;5004671;28;20060;-73
2022/02/20 04:44:48;;;;;;;1.23;0.90;;;5.10;95.30;;;;;;4998813;28;20050;-72
2022/02/20 04:47:22;;;;;;;2.00;1.02;;;5.10;95.30;;;;;;4999552;28;20048;-73
2022/02/20 04:49:48;;;;;;;1.52;0.80;;;5.20;95.20;;;;;;5008048;28;20557;-73
2022/02/20 04:52:21;;;;;;;1.73;0.90;;;5.20;95.00;;;;;;5005614;28;20220;-73
2022/02/20 04:55:01;;;;;;;1.50;0.88;;;5.30;95.10;;;;;;5003448;28;20489;-73
2022/02/20 04:57:34;;;;;;;2.50;0.98;;;5.30;95.00;;;;;;5007664;28;20092;-73
2022/02/20 05:00:00;;;;;;;1.40;1.05;;;5.30;95.30;;;;;;5001005;28;20037;-73
2022/02/20 05:02:39;;;;;;;2.80;1.13;;;5.30;94.90;;;;;;5001397;28;20034;-72
2022/02/20 05:05:07;;;;;;;1.10;1.02;;;5.40;94.90;;;;;;5004110;28;20047;-72
2022/02/20 05:07:34;;;;;;;1.00;1.00;;;5.40;95.00;;;;;;5003456;28;20045;-73
2022/02/20 05:09:59;;;;;;;1.85;1.02;;;5.40;94.90;;;;;;5002621;28;20827;-73
2022/02/20 05:12:25;;;;;;;1.45;1.10;;;5.50;94.80;;;;;;5002700;28;20034;-73
2022/02/20 05:14:51;;;;;;;2.05;1.48;;;5.50;94.80;;;;;;4995631;28;21041;-73
2022/02/20 05:17:25;;;;;;;2.90;1.52;;;5.60;94.90;;;;;;5000464;28;20037;-73
2022/02/20 05:19:56;;;;;;;2.45;1.38;;;5.60;95.20;;;;;;4992522;28;20484;-72
2022/02/20 05:22:22;;;;;;;2.58;1.40;;;5.60;94.90;;;;;;4998350;28;20053;-73
2022/02/20 05:24:54;;;;;;;1.80;1.42;;;5.60;94.90;;;;;;4990910;28;20696;-74
2022/02/20 05:27:20;;;;;;;2.78;1.40;;;5.70;94.80;;;;;;5002437;28;20076;-73
2022/02/20 05:29:49;;;;;;;2.15;1.50;;;5.70;94.90;;;;;;4997415;28;20041;-73
2022/02/20 05:32:23;;;;;;;1.70;1.60;;;5.70;94.80;;;;;;4995999;28;20053;-74
2022/02/20 05:34:57;;;;;;;2.15;1.85;;;5.60;94.90;;;;;;4991277;28;20030;-73
2022/02/20 05:37:26;;;;;;;1.30;1.20;;;5.60;95.00;;;;;;4996794;28;20582;-72
2022/02/20 05:39:52;;;;;;;3.55;1.58;;;5.60;95.00;;;;;;4993374;28;20034;-74
2022/02/20 05:42:18;;;;;;;9.57;2.80;;;5.60;95.10;;;;;;4993698;28;20562;-73
2022/02/20 05:44:53;;;;;;;6.13;1.83;;;5.50;95.00;;;;;;4992472;28;20034;-74
2022/02/20 05:47:19;;;;;;;1.70;1.60;;;5.50;95.20;;;;;;4998591;28;20041;-74
2022/02/20 05:49:48;;;;;;;3.65;2.05;;;5.50;95.10;;;;;;4993735;28;20026;-74
2022/02/20 05:52:15;;;;;;;1.98;1.75;;;5.50;95.20;;;;;;4995699;28;20683;-74
2022/02/20 05:54:43;;;;;;;2.05;1.52;;;5.60;95.20;;;;;;5002198;28;20034;-73
2022/02/20 05:57:10;;;;;;;3.03;1.60;;;5.50;95.00;;;;;;5004017;28;20150;-74
2022/02/20 05:59:41;;;;;;;5.32;1.52;;;5.50;95.20;;;;;;4997297;28;20118;-74
2022/02/20 06:02:07;;;;;;;1.80;1.55;;;5.50;95.10;;;;;;5003540;28;20117;-73
2022/02/20 06:04:33;;;;;;;2.15;1.70;;;5.40;95.10;;;;;;4994752;28;20026;-73
2022/02/20 06:07:32;;;;;;;2.67;1.63;;;5.40;95.20;;;;;;4969881;28;20140;-73
2022/02/20 06:10:16;;;;;;;2.78;1.88;;;5.40;95.30;;;;;;4992449;28;20045;-73
2022/02/20 06:12:57;;;;;;;1.60;1.50;;;5.40;95.30;;;;;;4997607;28;20031;-73
2022/02/20 06:15:39;;;;;;;2.15;1.70;;;5.40;95.20;;;;;;4995427;28;20034;-73
2022/02/20 06:18:10;;;;;;;3.30;1.85;;;5.40;95.20;;;;;;4992807;28;20072;-73
2022/02/20 06:20:45;;;;;;;3.53;1.75;;;5.40;95.10;;;;;;5005599;28;20034;-72
2022/02/20 06:23:22;;;;;;;3.55;1.88;;;5.50;95.00;;;;;;4998752;28;20158;-74
2022/02/20 06:25:48;;;;;;;3.85;1.80;;;5.50;95.00;;;;;;5000877;28;20375;-74
2022/02/20 06:28:18;;;;;;;2.10;1.60;;;5.60;94.90;;;;;;4998056;28;20041;-73
2022/02/20 06:30:44;;;;;;;4.13;1.70;;;5.60;94.90;;;;;;4992505;28;20034;-73
2022/02/20 06:33:21;;;;;;;2.28;1.98;;;5.70;94.90;;;;;;4996792;28;20041;-73
2022/02/20 06:35:46;;;;;;;2.10;1.63;;;5.70;94.70;;;;;;4993481;28;20030;-74
2022/02/20 06:38:13;;;;;;;4.45;2.03;;;5.80;94.70;;;;;;4998423;28;20133;-74
2022/02/20 06:40:40;;;;;;;2.15;1.90;;;5.80;94.70;;;;;;4995541;28;20030;-74
2022/02/20 06:43:06;;;;;;;2.03;1.83;;;5.80;94.60;;;;;;4997116;28;20149;-73
2022/02/20 06:45:35;;;;;;;2.58;1.88;;;5.90;94.60;;;;;;4995275;28;20412;-73
2022/02/20 06:48:27;;;;;;;2.47;2.28;;;5.90;94.50;;;;;;4988987;28;20827;-74
2022/02/20 06:51:06;;;;;;;1.95;1.83;;;6.00;94.40;;;;;;4995045;28;20751;-73
2022/02/20 06:53:54;;;;;;;3.55;1.92;;;6.00;94.30;;;;;;4995557;28;20409;-73
2022/02/20 06:56:41;;;;;;;1.73;1.60;;;6.10;94.20;;;;;;4996365;28;20124;-73
2022/02/20 06:59:07;;;;;;;2.08;1.85;;;6.10;94.00;;;;;;5000103;28;20124;-73
2022/02/20 07:01:33;;;;;;;2.70;2.10;;;6.20;93.90;;;;;;4993306;28;20069;-74
2022/02/20 07:03:58;;;;;;;3.25;2.33;;;6.40;93.80;;;;;;4992675;28;20037;-73
2022/02/20 07:06:24;;;;;;;2.78;2.00;;;6.40;93.50;;;;;;4989748;28;20082;-74
2022/02/20 07:08:52;;;;;;;2.22;2.00;;;6.30;93.40;;;;;;4995389;28;20030;-74
2022/02/20 07:11:18;;;;;;;2.42;2.03;;;6.30;93.40;;;;;;4989364;28;20056;-73
2022/02/20 07:13:44;;;;;;;3.20;2.20;;;6.30;93.50;;;;;;4986163;28;20502;-73
2022/02/20 07:16:09;;;;;;;2.25;1.80;;;6.40;93.40;;;;;;4985948;28;20034;-73
2022/02/20 07:18:35;;;;;;;4.75;2.92;;;6.40;93.40;;;;;;4992241;28;20030;-73
2022/02/20 07:21:01;;;;;;;3.60;2.90;;;6.50;93.30;;;;;;4993779;28;20034;-73
2022/02/20 07:23:26;;;;;;;5.03;3.70;;;6.60;93.20;;;;;;4988465;28;20030;-73
2022/02/20 07:25:52;;;;;;;6.72;3.88;;;6.60;93.10;;;;;;4988781;28;20045;-73
2022/02/20 07:28:18;;;;;;;5.72;3.70;;;6.70;93.00;;;;;;4992535;28;20478;-73
2022/02/20 07:30:43;;;;;;;9.27;5.90;;;6.70;92.90;;;;;;4991964;28;20034;-73
2022/02/20 07:33:12;;;;;;;6.80;4.13;;;6.70;92.50;;;;;;4993775;28;20030;-73
2022/02/20 07:35:38;;;;;;;5.97;4.57;;;6.70;92.60;;;;;;4988800;28;20037;-74
2022/02/20 07:38:06;;;;;;;3.80;3.42;;;6.70;92.60;;;;;;4987806;28;20077;-73
2022/02/20 07:40:32;;;;;;;3.92;3.22;;;6.60;92.60;;;;;;4992397;28;20165;-74
2022/02/20 07:42:58;;;;;;;3.05;2.75;;;6.60;92.70;;;;;;4997239;28;20025;-73
2022/02/20 07:45:25;;;;;;;4.53;3.03;;;6.70;92.70;;;;;;4993755;28;20038;-74
2022/02/20 07:47:59;;;;;;;3.65;3.33;;;6.80;92.50;;;;;;4988342;28;20096;-73
2022/02/20 07:50:31;;;;;;;3.90;3.15;;;7.00;92.20;;;;;;4995729;28;20057;-74
2022/02/20 07:52:58;;;;;;;4.90;3.60;;;7.20;91.90;;;;;;4996212;28;20557;-74
2022/02/20 07:55:24;;;;;;;6.95;4.88;;;7.40;91.60;;;;;;4985393;28;20038;-73
2022/02/20 07:57:50;;;;;;;4.03;3.63;;;7.50;91.40;;;;;;4992412;28;20023;-74
2022/02/20 08:00:18;;;;;;;4.18;3.78;;;7.60;91.20;;;;;;4996467;28;20057;-74
2022/02/20 08:02:45;;;;;;;2.80;2.58;;;8.40;91.00;;;;;;4992529;28;20084;-74
2022/02/20 08:05:11;;;;;;;3.30;2.97;;;9.60;86.30;;;;;;4998086;28;20030;-74
2022/02/20 08:07:37;;;;;;;11.70;7.00;;;10.50;81.00;;;;;;4994533;28;20069;-75
2022/02/20 08:10:05;;;;;;;8.32;5.80;;;10.90;77.90;;;;;;4997303;28;20046;-74
2022/02/20 08:12:30;;;;;;;3.15;2.85;;;11.00;77.40;;;;;;5000753;28;20065;-73
2022/02/20 08:14:56;;;;;;;3.00;2.30;;;10.80;76.90;;;;;;4992664;28;20026;-73
2022/02/20 08:17:23;;;;;;;3.50;2.47;;;10.40;76.20;;;;;;4992276;28;20109;-74
2022/02/20 08:19:49;;;;;;;2.40;2.20;;;9.90;77.00;;;;;;4996935;28;20035;-73
2022/02/20 08:22:15;;;;;;;2.67;2.47;;;9.60;78.90;;;;;;4992928;28;20508;-73
2022/02/20 08:24:43;;;;;;;2.60;2.40;;;9.50;80.20;;;;;;4991326;28;20113;-74
2022/02/20 08:27:10;;;;;;;3.35;2.80;;;9.50;80.60;;;;;;4994851;28;20120;-74
2022/02/20 08:29:36;;;;;;;3.83;2.85;;;9.60;80.30;;;;;;4992169;28;20041;-74
2022/02/20 08:32:02;;;;;;;3.33;2.88;;;10.00;78.20;;;;;;4990290;28;20643;-73
2022/02/20 08:34:29;;;;;;;4.03;2.78;;;10.50;76.80;;;;;;4995553;28;20081;-73
2022/02/20 08:36:56;;;;;;;2.70;2.50;;;11.20;74.60;;;;;;4993793;28;20042;-73
2022/02/20 08:39:21;;;;;;;3.22;2.53;;;11.40;73.20;;;;;;4994201;28;20022;-74
2022/02/20 08:41:47;;;;;;;2.88;2.60;;;11.10;72.20;;;;;;4995907;28;20104;-73
2022/02/20 08:44:13;;;;;;;3.47;2.97;;;10.60;73.80;;;;;;5002317;28;20091;-73
2022/02/20 08:46:39;;;;;;;3.10;2.45;;;10.30;74.00;;;;;;5002478;28;20144;-74
2022/02/20 08:49:05;;;;;;;3.45;2.85;;;10.10;75.70;;;;;;4993024;28;20445;-73
2022/02/20 08:51:31;;;;;;;3.63;2.60;;;9.90;76.90;;;;;;4995971;28;20033;-73
2022/02/20 08:53:57;;;;;;;3.85;2.92;;;9.80;77.70;;;;;;4988515;28;20108;-73
2022/02/20 08:56:26;;;;;;;3.35;2.72;;;9.50;77.70;;;;;;4995787;28;20046;-73
2022/02/20 08:58:53;;;;;;;4.50;3.63;;;9.20;78.00;;;;;;4992237;28;20652;-73
2022/02/20 09:01:19;;;;;;;3.05;2.75;;;8.90;79.30;;;;;;4995726;28;20438;-73
2022/02/20 09:03:45;;;;;;;4.95;3.20;;;8.80;80.50;;;;;;4990124;28;20033;-73
2022/02/20 09:06:11;;;;;;;3.25;2.95;;;8.70;81.60;;;;;;4994561;28;20457;-73
2022/02/20 09:08:37;;;;;;;4.10;3.05;;;8.80;81.60;;;;;;4988047;28;20045;-73
2022/02/20 09:11:03;;;;;;;2.97;2.60;;;8.80;81.70;;;;;;4986838;28;20184;-74
2022/02/20 09:13:29;;;;;;;3.97;3.35;;;8.90;80.70;;;;;;5000534;28;20085;-73
2022/02/20 09:15:55;;;;;;;4.32;3.03;;;8.90;81.00;;;;;;4997419;28;20431;-73
2022/02/20 09:18:21;;;;;;;5.20;3.55;;;9.00;80.60;;;;;;4993402;28;20049;-73
2022/02/20 09:20:47;;;;;;;3.65;3.33;;;8.90;81.70;;;;;;4996350;28;20481;-73
2022/02/20 09:23:14;;;;;;;3.63;3.10;;;8.90;80.90;;;;;;4997903;28;20037;-73
2022/02/20 09:25:41;;;;;;;4.47;3.60;;;8.80;80.90;;;;;;4999134;28;20102;-74
2022/02/20 09:28:07;;;;;;;4.20;3.63;;;8.80;81.10;;;;;;4997924;28;20034;-73
2022/02/20 09:30:33;;;;;;;4.78;3.60;;;8.80;80.60;;;;;;4998336;28;20037;-73
2022/02/20 09:32:59;;;;;;;4.93;4.03;;;8.80;80.80;;;;;;4993614;28;20036;-73
2022/02/20 09:35:25;;;;;;;4.78;3.95;;;8.80;81.10;;;;;;4999824;28;20042;-73
2022/02/20 09:37:52;;;;;;;4.50;3.60;;;8.90;81.60;;;;;;4993516;28;20046;-74
2022/02/20 09:40:18;;;;;;;4.50;3.72;;;9.00;82.00;;;;;;4998675;28;20030;-73
2022/02/20 09:42:44;;;;;;;4.95;3.50;;;9.10;81.60;;;;;;5005507;28;20099;-73
2022/02/20 09:45:10;;;;;;;4.68;3.78;;;9.00;81.00;;;;;;4996828;28;20036;-73
2022/02/20 09:47:40;;;;;;;5.43;4.03;;;9.10;81.30;;;;;;4994826;28;20042;-73
2022/02/20 09:50:07;;;;;;;5.22;3.95;;;9.40;80.80;;;;;;4990699;28;20037;-73
2022/02/20 09:52:33;;;;;;;7.95;5.60;;;9.50;79.20;;;;;;4994342;28;20072;-73
2022/02/20 09:54:58;;;;;;;8.32;5.00;;;9.60;78.10;;;;;;4997950;28;20065;-73
2022/02/20 09:57:25;;;;;;;5.20;4.28;;;9.60;79.00;;;;;;4994910;28;20525;-73
2022/02/20 09:59:53;;;;;;;5.78;4.47;;;9.60;79.40;;;;;;4994894;28;20030;-74
2022/02/20 10:02:20;;;;;;;6.53;5.30;;;9.50;78.70;;;;;;5001124;28;20022;-74
2022/02/20 10:04:50;;;;;;;7.72;5.25;;;9.40;78.90;;;;;;4998365;28;20037;-74
2022/02/20 10:07:36;;;;;;;6.68;4.50;;;9.40;79.50;;;;;;4999233;28;20038;-74
2022/02/20 10:10:12;;;;;;;10.50;5.47;;;9.30;79.10;;;;;;4989294;28;20033;-74
2022/02/20 10:12:38;;;;;;;10.27;6.40;;;9.20;79.40;;;;;;4997808;28;20072;-74
2022/02/20 10:15:22;;;;;;;13.55;8.02;;;9.30;80.20;;;;;;5000026;28;20197;-77
2022/02/20 10:17:48;;;;;;;18.10;9.60;;;9.30;80.50;;;;;;4998029;28;20061;-75
2022/02/20 10:20:32;;;;;;;10.35;6.00;;;9.40;80.80;;;;;;5000932;28;20072;-74
2022/02/20 10:23:18;;;;;;;9.52;5.18;;;9.40;79.40;;;;;;4978794;28;20636;-75
2022/02/20 10:26:14;;;;;;;17.38;9.68;;;9.50;79.10;;;;;;4995149;28;20141;-75
2022/02/20 10:29:11;;;;;;;12.80;7.28;;;9.40;79.70;;;;;;4977917;28;20088;-75
2022/02/20 10:31:46;;;;;;;12.23;5.38;;;9.50;79.50;;;;;;4997099;28;20529;-75
2022/02/20 10:34:23;;;;;;;9.73;5.03;;;9.70;79.70;;;;;;4996548;28;20052;-74
2022/02/20 10:37:01;;;;;;;3.47;2.70;;;9.80;77.90;;;;;;4999744;28;20683;-74
2022/02/20 10:39:34;;;;;;;6.15;3.42;;;9.80;75.80;;;;;;4993394;28;20030;-75
2022/02/20 10:42:14;;;;;;;8.77;5.20;;;9.30;77.40;;;;;;4989598;28;20041;-74
2022/02/20 10:44:54;;;;;;;3.80;2.20;;;9.30;78.50;;;;;;4993899;28;20057;-74
2022/02/20 10:47:22;;;;;;;4.95;3.47;;;9.20;78.60;;;;;;4998554;28;20038;-77
2022/02/20 10:49:48;;;;;;;14.77;7.03;;;9.00;79.90;;;;;;4995444;28;20126;-77
2022/02/20 10:52:28;;;;;;;16.25;7.13;;;8.90;82.10;;;;;;4989931;28;20838;-75
2022/02/20 10:55:11;;;;;;;6.35;3.63;;;8.90;81.90;;;;;;4987156;28;20034;-77
2022/02/20 10:57:39;;;;;;;3.47;2.05;;;8.80;82.60;;;;;;4993029;28;20152;-77
2022/02/20 11:00:19;;;;;;;4.03;2.17;;;8.60;82.60;;;;;;4993012;28;20652;-77
2022/02/20 11:02:45;;;;;;;3.45;2.13;;;8.50;84.00;;;;;;4999571;28;20041;-76
2022/02/20 11:05:12;;;;;;;3.35;1.80;;;8.40;85.20;;;;;;4984970;28;20022;-76
2022/02/20 11:07:39;;;;;;;4.63;2.30;;;8.20;85.60;;;;;;4991999;28;20085;-76
2022/02/20 11:10:07;;;;;;;5.32;2.65;;;8.10;86.80;;;;;;5000833;28;20516;-76
2022/02/20 11:12:35;;;;;;;3.72;1.90;;;8.20;87.50;;;;;;4995714;28;20061;-77
2022/02/20 11:15:06;;;;;;;2.58;1.80;;;8.30;87.30;;;;;;4992664;28;21888;-76
2022/02/20 11:17:35;;;;;;;3.83;1.90;;;8.30;87.50;;;;;;4997108;28;20041;-75
2022/02/20 11:20:04;;;;;;;3.75;1.98;;;8.20;87.50;;;;;;4989997;28;20481;-75
2022/02/20 11:22:33;;;;;;;4.20;2.35;;;8.00;89.00;;;;;;4997740;28;20042;-75
2022/02/20 11:25:01;;;;;;;3.95;2.00;;;7.90;90.30;;;;;;4996067;28;20029;-74
2022/02/20 11:27:27;;;;;;;5.60;2.50;;;7.70;90.70;;;;;;4996963;28;20065;-74
2022/02/20 11:29:53;;;;;;;4.97;2.65;;;7.50;91.20;;;;;;4995295;28;20038;-74
2022/02/20 11:32:20;;;;;;;3.95;2.40;;;7.50;91.50;;;;;;4998814;28;20044;-74
2022/02/20 11:34:47;;;;;;;3.55;2.25;;;7.40;91.20;;;;;;4999782;28;20068;-75
2022/02/20 11:37:14;;;;;;;3.15;2.40;;;7.50;90.80;;;;;;5000781;28;20442;-74
2022/02/20 11:39:58;;;;;;;3.75;2.30;;;7.30;90.70;;;;;;4994727;28;20032;-74
2022/02/20 11:42:24;;;;;;;6.55;2.83;;;7.20;91.40;;;;;;4998561;28;20065;-74
2022/02/20 11:44:52;;;;;;;4.07;2.45;;;7.20;91.50;;;;;;4990135;28;20065;-74
2022/02/20 11:47:40;;;;;;;5.28;2.42;;;7.10;91.50;;;;;;4996597;28;20052;-74
2022/02/20 11:50:15;;;;;;;5.10;2.80;;;7.00;91.80;;;;;;4994292;28;20030;-75
2022/02/20 11:53:13;;;;;;;3.38;2.28;;;6.80;91.90;;;;;;4994766;28;20842;-74
2022/02/20 11:55:42;;;;;;;5.80;2.75;;;6.60;92.20;;;;;;4995452;28;20046;-74
2022/02/20 11:58:10;;;;;;;4.93;2.78;;;6.50;92.50;;;;;;4997228;28;20076;-73
2022/02/20 12:00:37;;;;;;;3.08;2.50;;;6.40;92.90;;;;;;4996870;28;20572;-75
2022/02/20 12:03:06;;;;;;;3.70;2.88;;;6.30;93.20;;;;;;4994948;28;20038;-74
2022/02/20 12:05:35;;;;;;;4.38;3.22;;;6.30;93.70;;;;;;4998377;28;20446;-75
2022/02/20 12:08:08;;;;;;;7.85;2.90;;;6.40;93.90;;;;;;4996905;28;20038;-75
2022/02/20 12:10:36;;;;;;;7.25;2.58;;;6.40;93.70;;;;;;5000725;28;20112;-74
2022/02/20 12:13:03;;;;;;;5.55;2.78;;;6.40;93.30;;;;;;4994277;28;20037;-74
2022/02/20 12:15:42;;;;;;;4.30;2.65;;;6.30;93.60;;;;;;4987702;28;20030;-76
2022/02/20 12:18:12;;;;;;;3.88;2.78;;;6.40;94.00;;;;;;4995506;28;20053;-74
2022/02/20 12:20:47;;;;;;;5.97;2.42;;;6.40;94.00;;;;;;4990646;28;20038;-74
2022/02/20 12:23:34;;;;;;;4.75;2.42;;;6.60;93.80;;;;;;4989327;28;20027;-74
2022/02/20 12:26:05;;;;;;;5.55;2.85;;;6.60;93.50;;;;;;4989742;28;20048;-74
2022/02/20 12:28:42;;;;;;;7.25;2.90;;;6.70;93.50;;;;;;4985372;28;20045;-74
2022/02/20 12:31:14;;;;;;;8.73;3.00;;;6.70;93.60;;;;;;4999605;28;20096;-74
2022/02/20 12:33:48;;;;;;;7.55;2.75;;;6.70;93.70;;;;;;4996474;28;20572;-73
2022/02/20 12:36:23;;;;;;;4.57;2.45;;;6.70;93.70;;;;;;4998241;28;20212;-73
2022/02/20 12:38:51;;;;;;;5.60;2.50;;;6.70;93.90;;;;;;4994526;28;20034;-75
2022/02/20 12:41:17;;;;;;;6.22;3.25;;;6.70;93.60;;;;;;4995927;28;20062;-78
2022/02/20 12:43:50;;;;;;;3.45;2.47;;;6.70;93.90;;;;;;4997845;28;20073;-74
2022/02/20 12:46:17;;;;;;;5.85;2.95;;;6.70;94.00;;;;;;4999198;28;20128;-74
2022/02/20 12:48:43;;;;;;;5.55;2.72;;;6.90;94.10;;;;;;4999943;28;20057;-68
2022/02/20 12:51:11;;;;;;;6.35;2.72;;;6.90;93.80;;;;;;4997540;28;20037;-68
2022/02/20 12:53:38;;;;;;;6.43;3.05;;;6.90;93.90;;;;;;5000537;28;20529;-67
2022/02/20 12:56:07;;;;;;;4.40;3.15;;;6.90;93.80;;;;;;4993074;28;20038;-67
2022/02/20 12:58:49;;;;;;;4.88;2.80;;;7.00;94.10;;;;;;4997836;28;20045;-67
2022/02/20 13:01:19;;;;;;;5.95;3.35;;;6.90;94.20;;;;;;5002571;28;20030;-67
2022/02/20 13:03:52;;;;;;;7.95;3.47;;;6.90;94.40;;;;;;4999090;28;20054;-67
2022/02/20 13:06:38;;;;;;;6.57;2.67;;;6.80;94.60;;;;;;4993521;28;20212;-70
2022/02/20 13:09:05;;;;;;;5.03;2.72;;;6.70;95.30;;;;;;4994789;28;20695;-70